createdAt,value
2022-10-16T00:00:51.373Z,12.80
2022-10-16T00:01:51.382Z,12.79
2022-10-16T00:02:51.314Z,12.75
2022-10-16T00:03:51.305Z,12.75
2022-10-16T00:04:51.286Z,12.70
2022-10-16T00:05:51.321Z,12.67
2022-10-16T00:06:51.285Z,12.65
2022-10-16T00:07:51.253Z,12.64
2022-10-16T00:08:51.247Z,12.61
2022-10-16T00:09:51.226Z,12.58
2022-10-16T00:10:51.235Z,12.54
2022-10-16T00:12:54.207Z,12.50
2022-10-16T00:13:51.169Z,12.46
2022-10-16T00:14:51.207Z,12.45
2022-10-16T00:15:51.149Z,12.43
2022-10-16T00:16:51.125Z,12.40
2022-10-16T00:17:51.117Z,12.37
2022-10-16T00:18:51.099Z,12.36
2022-10-16T00:19:51.087Z,12.35
2022-10-16T00:20:51.124Z,12.31
2022-10-16T00:21:51.060Z,12.29
2022-10-16T00:22:51.041Z,12.27
2022-10-16T00:23:51.030Z,12.24
2022-10-16T00:24:51.022Z,12.20
2022-10-16T00:25:51.032Z,12.17
2022-10-16T00:26:51.053Z,12.15
2022-10-16T00:27:50.979Z,12.12
2022-10-16T00:28:51.040Z,12.10
2022-10-16T00:29:50.966Z,12.06
2022-10-16T00:30:50.935Z,12.02
2022-10-16T00:31:53.984Z,12.00
2022-10-16T00:32:53.916Z,12.00
2022-10-16T00:33:50.896Z,11.95
2022-10-16T00:34:50.875Z,11.95
2022-10-16T00:35:50.877Z,11.94
2022-10-16T00:36:50.854Z,11.91
2022-10-16T00:37:50.868Z,11.90
2022-10-16T00:38:50.879Z,11.91
2022-10-16T00:39:50.816Z,11.88
2022-10-16T00:40:50.799Z,11.86
2022-10-16T00:41:50.986Z,11.84
2022-10-16T00:42:50.770Z,11.80
2022-10-16T00:43:50.758Z,11.80
2022-10-16T00:44:50.746Z,11.75
2022-10-16T00:45:50.747Z,11.75
2022-10-16T00:46:50.719Z,11.73
2022-10-16T00:47:50.761Z,11.70
2022-10-16T00:48:50.711Z,11.68
2022-10-16T00:49:50.681Z,11.68
2022-10-16T00:50:50.674Z,11.66
2022-10-16T00:51:53.661Z,11.66
2022-10-16T00:52:53.713Z,11.65
2022-10-16T00:53:50.633Z,11.62
2022-10-16T00:54:50.611Z,11.60
2022-10-16T00:55:50.603Z,11.55
2022-10-16T00:56:50.618Z,11.54
2022-10-16T00:57:50.580Z,11.51
2022-10-16T00:58:50.591Z,11.52
2022-10-16T00:59:50.553Z,11.51
2022-10-16T01:00:50.611Z,11.47
2022-10-16T01:01:50.524Z,11.44
2022-10-16T01:02:50.518Z,11.43
2022-10-16T01:03:50.526Z,11.41
2022-10-16T01:04:50.487Z,11.37
2022-10-16T01:05:50.476Z,11.36
2022-10-16T01:06:50.466Z,11.35
2022-10-16T01:07:50.461Z,11.32
2022-10-16T01:08:50.456Z,11.29
2022-10-16T01:09:50.445Z,11.27
2022-10-16T01:10:50.419Z,11.25
2022-10-16T01:11:53.587Z,11.23
2022-10-16T01:12:53.392Z,11.23
2022-10-16T01:13:50.379Z,11.19
2022-10-16T01:14:50.351Z,11.17
2022-10-16T01:15:50.347Z,11.17
2022-10-16T01:16:50.327Z,11.11
2022-10-16T01:17:50.392Z,11.12
2022-10-16T01:18:50.300Z,11.11
2022-10-16T01:19:50.291Z,11.11
2022-10-16T01:20:50.292Z,11.08
2022-10-16T01:21:50.280Z,11.08
2022-10-16T01:22:50.252Z,11.10
2022-10-16T01:23:50.301Z,11.08
2022-10-16T01:24:50.281Z,11.05
2022-10-16T01:25:50.227Z,11.05
2022-10-16T01:26:50.199Z,11.04
2022-10-16T01:27:50.191Z,11.02
2022-10-16T01:28:50.248Z,11.00
2022-10-16T01:29:50.196Z,10.99
2022-10-16T01:30:50.144Z,10.96
2022-10-16T01:31:53.136Z,10.94
2022-10-16T01:32:53.160Z,10.94
2022-10-16T01:33:50.155Z,10.90
2022-10-16T01:34:50.091Z,10.90
2022-10-16T01:35:50.154Z,10.89
2022-10-16T01:36:50.059Z,10.89
2022-10-16T01:37:50.047Z,10.87
2022-10-16T01:38:50.035Z,10.86
2022-10-16T01:39:50.031Z,10.86
2022-10-16T01:40:50.007Z,10.86
2022-10-16T01:41:50.018Z,10.86
2022-10-16T01:42:50.023Z,10.84
2022-10-16T01:43:49.978Z,10.84
2022-10-16T01:44:49.947Z,10.82
2022-10-16T01:45:49.956Z,10.82
2022-10-16T01:46:49.958Z,10.82
2022-10-16T01:47:49.931Z,10.82
2022-10-16T01:48:49.899Z,10.81
2022-10-16T01:49:49.887Z,10.78
2022-10-16T01:50:49.890Z,10.76
2022-10-16T01:51:52.933Z,10.75
2022-10-16T01:52:52.853Z,10.75
2022-10-16T01:53:49.831Z,10.72
2022-10-16T01:54:49.844Z,10.71
2022-10-16T01:55:49.803Z,10.69
2022-10-16T01:56:49.784Z,10.69
2022-10-16T01:57:49.801Z,10.68
2022-10-16T01:58:49.801Z,10.67
2022-10-16T01:59:49.750Z,10.64
2022-10-16T02:00:49.829Z,10.63
2022-10-16T02:01:49.732Z,10.63
2022-10-16T02:02:49.727Z,10.61
2022-10-16T02:03:49.722Z,10.59
2022-10-16T02:04:49.675Z,10.59
2022-10-16T02:05:49.717Z,10.59
2022-10-16T02:06:49.664Z,10.60
2022-10-16T02:07:49.643Z,10.57
2022-10-16T02:08:49.626Z,10.56
2022-10-16T02:09:49.615Z,10.57
2022-10-16T02:10:49.613Z,10.56
2022-10-16T02:11:52.626Z,10.60
2022-10-16T02:12:52.576Z,10.60
2022-10-16T02:13:49.579Z,10.57
2022-10-16T02:14:49.537Z,10.59
2022-10-16T02:15:49.546Z,10.57
2022-10-16T02:16:49.517Z,10.57
2022-10-16T02:17:49.547Z,10.57
2022-10-16T02:18:49.486Z,10.59
2022-10-16T02:19:49.478Z,10.56
2022-10-16T02:20:49.459Z,10.56
2022-10-16T02:21:49.448Z,10.56
2022-10-16T02:22:49.451Z,10.53
2022-10-16T02:23:49.451Z,10.51
2022-10-16T02:24:49.400Z,10.54
2022-10-16T02:25:49.391Z,10.54
2022-10-16T02:26:49.371Z,10.53
2022-10-16T02:27:49.365Z,10.53
2022-10-16T02:28:49.444Z,10.54
2022-10-16T02:29:49.394Z,10.53
2022-10-16T02:30:49.320Z,10.54
2022-10-16T02:31:52.311Z,10.54
2022-10-16T02:32:52.333Z,10.56
2022-10-16T02:33:49.283Z,10.54
2022-10-16T02:34:49.264Z,10.56
2022-10-16T02:35:49.293Z,10.60
2022-10-16T02:36:49.234Z,10.61
2022-10-16T02:37:49.224Z,10.63
2022-10-16T02:38:49.234Z,10.64
2022-10-16T02:39:49.196Z,10.69
2022-10-16T02:40:49.175Z,10.71
2022-10-16T02:41:49.217Z,10.72
2022-10-16T02:42:49.158Z,10.74
2022-10-16T02:43:49.184Z,10.75
2022-10-16T02:44:49.126Z,10.75
2022-10-16T02:45:49.139Z,10.75
2022-10-16T02:46:49.106Z,10.76
2022-10-16T02:47:49.157Z,10.76
2022-10-16T02:48:49.067Z,10.76
2022-10-16T02:49:49.066Z,10.75
2022-10-16T02:50:49.047Z,10.74
2022-10-16T02:51:52.050Z,10.72
2022-10-16T02:52:52.059Z,10.74
2022-10-16T02:53:49.036Z,10.71
2022-10-16T02:54:48.989Z,10.69
2022-10-16T02:55:49.052Z,10.68
2022-10-16T02:56:48.962Z,10.67
2022-10-16T02:57:48.950Z,10.61
2022-10-16T02:58:48.932Z,10.63
2022-10-16T02:59:48.922Z,10.61
2022-10-16T03:00:48.988Z,10.59
2022-10-16T03:01:48.943Z,10.59
2022-10-16T03:02:48.881Z,10.57
2022-10-16T03:03:48.871Z,10.56
2022-10-16T03:04:48.852Z,10.54
2022-10-16T03:05:48.857Z,10.57
2022-10-16T03:06:48.822Z,10.56
2022-10-16T03:07:48.872Z,10.57
2022-10-16T03:08:48.801Z,10.57
2022-10-16T03:09:48.804Z,10.57
2022-10-16T03:10:48.771Z,10.59
2022-10-16T03:11:51.772Z,10.60
2022-10-16T03:12:51.795Z,10.64
2022-10-16T03:13:48.741Z,10.60
2022-10-16T03:14:48.723Z,10.61
2022-10-16T03:15:48.752Z,10.60
2022-10-16T03:16:48.713Z,10.61
2022-10-16T03:17:48.676Z,10.60
2022-10-16T03:18:48.659Z,10.59
2022-10-16T03:19:48.647Z,10.59
2022-10-16T03:20:48.633Z,10.60
2022-10-16T03:21:48.651Z,10.61
2022-10-16T03:22:48.621Z,10.61
2022-10-16T03:23:48.598Z,10.63
2022-10-16T03:24:48.577Z,10.61
2022-10-16T03:25:48.618Z,10.60
2022-10-16T03:26:48.548Z,10.61
2022-10-16T03:27:48.559Z,10.61
2022-10-16T03:28:48.556Z,10.63
2022-10-16T03:29:48.511Z,10.63
2022-10-16T03:30:48.502Z,10.64
2022-10-16T03:31:51.560Z,10.64
2022-10-16T03:32:51.493Z,10.69
2022-10-16T03:33:48.461Z,10.67
2022-10-16T03:34:48.441Z,10.69
2022-10-16T03:35:48.432Z,10.68
2022-10-16T03:36:48.424Z,10.69
2022-10-16T03:37:48.451Z,10.68
2022-10-16T03:38:48.440Z,10.69
2022-10-16T03:39:48.375Z,10.69
2022-10-16T03:40:48.390Z,10.69
2022-10-16T03:41:48.355Z,10.71
2022-10-16T03:42:48.339Z,10.69
2022-10-16T03:43:48.332Z,10.72
2022-10-16T03:44:48.503Z,10.71
2022-10-16T03:45:48.304Z,10.72
2022-10-16T03:46:48.276Z,10.72
2022-10-16T03:47:48.267Z,10.71
2022-10-16T03:48:48.257Z,10.71
2022-10-16T03:49:48.265Z,10.72
2022-10-16T03:50:48.275Z,10.71
2022-10-16T03:51:51.206Z,10.72
2022-10-16T03:52:51.220Z,10.72
2022-10-16T03:53:48.177Z,10.72
2022-10-16T03:54:48.169Z,10.72
2022-10-16T03:55:48.154Z,10.74
2022-10-16T03:56:48.189Z,10.75
2022-10-16T03:57:48.154Z,10.74
2022-10-16T03:58:48.117Z,10.75
2022-10-16T03:59:48.100Z,10.78
2022-10-16T04:00:48.131Z,10.78
2022-10-16T04:01:48.071Z,10.78
2022-10-16T04:02:48.134Z,10.78
2022-10-16T04:03:48.047Z,10.76
2022-10-16T04:04:48.031Z,10.79
2022-10-16T04:05:48.020Z,10.78
2022-10-16T04:06:48.010Z,10.79
2022-10-16T04:07:48.000Z,10.79
2022-10-16T04:08:48.031Z,10.81
2022-10-16T04:09:47.963Z,10.81
2022-10-16T04:10:47.957Z,10.84
2022-10-16T04:11:50.933Z,10.82
2022-10-16T04:12:50.942Z,10.87
2022-10-16T04:13:47.903Z,10.86
2022-10-16T04:14:47.964Z,10.86
2022-10-16T04:15:47.874Z,10.89
2022-10-16T04:16:47.864Z,10.90
2022-10-16T04:17:47.854Z,10.92
2022-10-16T04:18:47.836Z,10.93
2022-10-16T04:19:47.850Z,10.94
2022-10-16T04:20:47.867Z,10.96
2022-10-16T04:21:47.795Z,10.99
2022-10-16T04:22:47.786Z,11.02
2022-10-16T04:23:47.788Z,11.04
2022-10-16T04:24:47.757Z,11.07
2022-10-16T04:25:47.745Z,11.10
2022-10-16T04:26:47.779Z,11.11
2022-10-16T04:27:47.715Z,11.12
2022-10-16T04:28:47.752Z,11.17
2022-10-16T04:29:47.689Z,11.18
2022-10-16T04:30:47.678Z,11.18
2022-10-16T04:31:50.705Z,11.23
2022-10-16T04:32:50.753Z,11.25
2022-10-16T04:33:47.640Z,11.25
2022-10-16T04:34:47.619Z,11.27
2022-10-16T04:35:47.600Z,11.29
2022-10-16T04:36:47.613Z,11.30
2022-10-16T04:37:47.580Z,11.30
2022-10-16T04:38:47.613Z,11.32
2022-10-16T04:39:47.552Z,11.32
2022-10-16T04:40:47.543Z,11.30
2022-10-16T04:41:47.533Z,11.35
2022-10-16T04:42:47.512Z,11.30
2022-10-16T04:43:47.495Z,11.33
2022-10-16T04:44:47.538Z,11.32
2022-10-16T04:45:47.487Z,11.33
2022-10-16T04:46:47.453Z,11.33
2022-10-16T04:47:47.445Z,11.35
2022-10-16T04:48:47.424Z,11.35
2022-10-16T04:49:47.414Z,11.37
2022-10-16T04:50:51.669Z,11.40
2022-10-16T04:51:51.385Z,11.40
2022-10-16T04:52:50.388Z,11.41
2022-10-16T04:53:47.371Z,11.43
2022-10-16T04:54:47.346Z,11.44
2022-10-16T04:55:47.336Z,11.43
2022-10-16T04:56:47.346Z,11.45
2022-10-16T04:57:47.307Z,11.47
2022-10-16T04:58:47.322Z,11.48
2022-10-16T04:59:47.316Z,11.50
2022-10-16T05:00:47.267Z,11.50
2022-10-16T05:01:47.249Z,11.51
2022-10-16T05:02:47.300Z,11.50
2022-10-16T05:03:47.231Z,11.51
2022-10-16T05:04:47.208Z,11.52
2022-10-16T05:05:47.239Z,11.52
2022-10-16T05:06:47.188Z,11.52
2022-10-16T05:07:47.169Z,11.52
2022-10-16T05:08:47.166Z,11.52
2022-10-16T05:09:47.141Z,11.52
2022-10-16T05:10:47.135Z,11.52
2022-10-16T05:11:50.161Z,11.52
2022-10-16T05:12:50.136Z,11.57
2022-10-16T05:13:48.953Z,11.55
2022-10-16T05:14:47.073Z,11.54
2022-10-16T05:15:47.064Z,11.55
2022-10-16T05:16:48.173Z,11.55
2022-10-16T05:17:47.083Z,11.55
2022-10-16T05:18:47.192Z,11.55
2022-10-16T05:19:47.003Z,11.55
2022-10-16T05:20:46.996Z,11.55
2022-10-16T05:21:47.017Z,11.57
2022-10-16T05:22:46.965Z,11.55
2022-10-16T05:23:46.986Z,11.55
2022-10-16T05:24:46.941Z,11.59
2022-10-16T05:25:46.935Z,11.57
2022-10-16T05:26:46.911Z,11.59
2022-10-16T05:27:46.895Z,11.60
2022-10-16T05:28:46.926Z,11.59
2022-10-16T05:29:46.916Z,11.59
2022-10-16T05:30:46.894Z,11.60
2022-10-16T05:31:49.837Z,11.60
2022-10-16T05:32:49.845Z,11.62
2022-10-16T05:33:46.951Z,11.59
2022-10-16T05:34:46.797Z,11.59
2022-10-16T05:35:46.810Z,11.59
2022-10-16T05:36:46.796Z,11.57
2022-10-16T05:37:46.759Z,11.55
2022-10-16T05:38:46.749Z,11.54
2022-10-16T05:39:46.780Z,11.51
2022-10-16T05:40:46.721Z,11.50
2022-10-16T05:41:46.721Z,11.51
2022-10-16T05:42:46.693Z,11.48
2022-10-16T05:43:46.680Z,11.48
2022-10-16T05:44:46.676Z,11.44
2022-10-16T05:45:46.691Z,11.44
2022-10-16T05:46:46.642Z,11.44
2022-10-16T05:47:46.621Z,11.44
2022-10-16T05:48:46.631Z,11.43
2022-10-16T05:49:46.653Z,11.43
2022-10-16T05:50:46.605Z,11.41
2022-10-16T05:51:49.571Z,11.41
2022-10-16T05:52:49.572Z,11.44
2022-10-16T07:56:47.340Z,14.07
2022-10-16T07:57:20.224Z,14.07
2022-10-16T07:58:20.523Z,14.08
2022-10-16T07:59:41.760Z,14.08
2022-10-16T08:00:19.930Z,14.04
2022-10-16T08:01:20.326Z,13.99
2022-10-16T08:02:20.639Z,13.97
2022-10-16T08:03:19.873Z,13.96
2022-10-16T08:04:19.880Z,13.92
2022-10-16T08:05:19.800Z,13.92
2022-10-16T08:06:22.081Z,13.90
2022-10-16T08:07:21.812Z,13.89
2022-10-16T08:08:19.897Z,13.87
2022-10-16T08:09:19.873Z,13.87
2022-10-16T08:10:20.695Z,13.90
2022-10-16T08:11:21.887Z,13.89
2022-10-16T08:12:24.470Z,13.90
2022-10-16T08:13:20.867Z,13.90
2022-10-16T08:14:19.744Z,13.90
2022-10-16T08:15:22.855Z,13.90
2022-10-16T08:16:23.671Z,13.93
2022-10-16T08:17:22.718Z,13.93
2022-10-16T08:18:19.596Z,13.90
2022-10-16T08:19:19.557Z,13.90
2022-10-16T08:20:21.184Z,13.87
2022-10-16T08:21:21.354Z,13.86
2022-10-16T08:22:27.464Z,13.86
2022-10-16T08:23:19.674Z,13.87
2022-10-16T08:24:20.253Z,13.92
2022-10-16T08:25:34.486Z,13.93
2022-10-16T08:26:20.109Z,13.95
2022-10-16T08:27:19.684Z,14.00
2022-10-16T08:28:24.873Z,14.03
2022-10-16T08:29:23.181Z,14.05
2022-10-16T08:30:19.482Z,14.08
2022-10-16T08:31:20.435Z,14.07
2022-10-16T08:32:44.278Z,14.08
2022-10-16T08:33:19.438Z,14.15
2022-10-16T08:40:14.873Z,14.41
2022-10-16T08:41:23.995Z,14.41
2022-10-16T08:42:16.830Z,14.47
2022-10-16T08:43:22.971Z,14.53
2022-10-16T08:46:41.425Z,14.79
2022-10-16T08:47:08.825Z,14.85
2022-10-16T08:48:10.295Z,14.86
2022-10-16T08:49:13.804Z,14.89
2022-10-16T08:50:10.892Z,14.94
2022-10-16T08:51:08.853Z,15.02
2022-10-16T08:52:08.758Z,15.11
2022-10-16T08:53:16.275Z,15.17
2022-10-16T08:54:08.738Z,15.21
2022-10-16T08:55:10.362Z,15.25
2022-10-16T08:56:08.872Z,15.31
2022-10-16T08:57:08.712Z,15.36
2022-10-16T08:58:08.720Z,15.39
2022-10-16T08:59:23.698Z,15.42
2022-10-16T09:00:09.519Z,15.46
2022-10-16T09:01:22.183Z,15.46
2022-10-16T09:02:37.420Z,15.49
2022-10-16T09:03:12.512Z,15.54
2022-10-16T09:04:57.201Z,15.54
2022-10-16T09:05:18.875Z,15.59
2022-10-16T09:06:12.509Z,15.70
2022-10-16T09:07:15.388Z,15.79
2022-10-16T09:08:10.876Z,15.90
2022-10-16T09:19:44.370Z,16.01
2022-10-16T09:20:42.791Z,16.00
2022-10-16T09:21:43.100Z,15.98
2022-10-16T09:23:06.915Z,16.04
2022-10-16T09:23:42.803Z,16.09
2022-10-16T09:24:42.702Z,16.10
2022-10-16T09:25:42.683Z,16.09
2022-10-16T09:26:42.934Z,16.13
2022-10-16T09:27:42.723Z,16.13
2022-10-16T09:28:42.753Z,16.16
2022-10-16T09:29:42.645Z,16.21
2022-10-16T09:30:42.646Z,16.28
2022-10-16T09:31:42.613Z,16.39
2022-10-16T09:32:42.636Z,16.51
2022-10-16T09:33:42.601Z,16.64
2022-10-16T09:34:42.550Z,16.72
2022-10-16T09:35:42.588Z,16.84
2022-10-16T09:36:42.566Z,16.93
2022-10-16T09:37:42.516Z,16.94
2022-10-16T09:38:45.538Z,16.99
2022-10-16T09:39:45.516Z,17.02
2022-10-16T09:40:42.478Z,16.97
2022-10-16T09:41:42.491Z,16.96
2022-10-16T09:42:42.457Z,16.91
2022-10-16T09:43:42.469Z,16.91
2022-10-16T09:44:42.431Z,16.90
2022-10-16T09:45:42.430Z,16.90
2022-10-16T09:46:42.400Z,16.89
2022-10-16T09:47:42.384Z,16.87
2022-10-16T09:48:42.404Z,16.84
2022-10-16T09:49:42.361Z,16.78
2022-10-16T09:50:42.340Z,16.78
2022-10-16T09:51:42.391Z,16.78
2022-10-16T09:52:43.375Z,16.81
2022-10-16T09:53:42.354Z,16.87
2022-10-16T09:54:42.325Z,16.91
2022-10-16T09:55:42.273Z,16.99
2022-10-16T09:56:42.295Z,17.02
2022-10-16T09:57:42.274Z,17.08
2022-10-16T09:58:45.274Z,17.14
2022-10-16T09:59:45.281Z,17.15
2022-10-16T10:00:42.206Z,17.26
2022-10-16T10:01:42.225Z,17.33
2022-10-16T10:02:42.224Z,17.39
2022-10-16T10:03:42.157Z,17.41
2022-10-16T10:04:42.149Z,17.34
2022-10-16T10:05:42.168Z,17.27
2022-10-16T10:06:42.137Z,17.24
2022-10-16T10:07:42.148Z,17.20
2022-10-16T10:08:42.119Z,17.22
2022-10-16T10:09:42.153Z,17.20
2022-10-16T10:10:42.159Z,17.23
2022-10-16T10:11:42.069Z,17.27
2022-10-16T10:12:42.101Z,17.33
2022-10-16T10:13:42.042Z,17.42
2022-10-16T10:14:42.019Z,17.48
2022-10-16T10:15:42.005Z,17.49
2022-10-16T10:16:42.032Z,17.49
2022-10-16T10:17:42.194Z,17.49
2022-10-16T10:18:44.981Z,17.59
2022-10-16T10:19:45.023Z,17.67
2022-10-16T10:20:41.989Z,17.63
2022-10-16T10:21:41.948Z,17.64
2022-10-16T10:22:42.038Z,17.70
2022-10-16T10:23:42.065Z,17.60
2022-10-16T10:24:41.868Z,17.57
2022-10-16T10:25:42.036Z,17.63
2022-10-16T10:26:45.324Z,17.70
2022-10-16T10:27:41.908Z,17.70
2022-10-16T10:28:42.006Z,17.78
2022-10-16T10:29:41.828Z,17.85
2022-10-16T10:30:41.829Z,17.90
2022-10-16T10:31:41.788Z,17.95
2022-10-16T10:32:41.794Z,17.90
2022-10-16T10:33:41.767Z,17.90
2022-10-16T10:34:41.728Z,17.92
2022-10-16T10:35:41.724Z,17.86
2022-10-16T10:36:41.750Z,17.86
2022-10-16T10:37:41.716Z,17.85
2022-10-16T10:38:44.719Z,17.87
2022-10-16T10:39:44.684Z,17.90
2022-10-16T10:40:41.671Z,17.86
2022-10-16T10:41:41.695Z,17.87
2022-10-16T10:42:41.652Z,17.83
2022-10-16T10:43:41.681Z,17.92
2022-10-16T10:44:41.614Z,18.00
2022-10-16T10:45:41.585Z,17.95
2022-10-16T10:46:43.415Z,17.94
2022-10-16T10:47:41.593Z,17.89
2022-10-16T10:48:41.554Z,17.92
2022-10-16T10:49:43.262Z,17.97
2022-10-16T10:50:41.574Z,17.98
2022-10-16T10:51:41.556Z,18.04
2022-10-16T10:52:41.547Z,18.19
2022-10-16T10:53:41.509Z,18.25
2022-10-16T10:54:41.520Z,18.33
2022-10-16T10:55:41.491Z,18.41
2022-10-16T10:56:41.446Z,18.55
2022-10-16T10:57:41.475Z,18.60
2022-10-16T10:58:44.488Z,18.60
2022-10-16T10:59:44.648Z,18.55
2022-10-16T11:00:41.459Z,18.43
2022-10-16T11:01:41.449Z,18.43
2022-10-16T11:02:41.431Z,18.47
2022-10-16T11:03:41.350Z,18.44
2022-10-16T11:04:41.360Z,18.33
2022-10-16T11:05:41.367Z,18.23
2022-10-16T11:06:41.340Z,18.28
2022-10-16T11:07:41.320Z,18.33
2022-10-16T11:08:41.325Z,18.25
2022-10-16T11:09:41.266Z,18.13
2022-10-16T11:10:41.323Z,18.19
2022-10-16T11:11:41.294Z,18.22
2022-10-16T11:12:41.237Z,18.22
2022-10-16T11:13:41.283Z,18.15
2022-10-16T11:14:41.224Z,18.19
2022-10-16T11:15:41.358Z,18.18
2022-10-16T11:16:41.185Z,18.19
2022-10-16T11:17:41.224Z,18.28
2022-10-16T11:18:44.225Z,18.34
2022-10-16T11:19:44.169Z,18.47
2022-10-16T11:20:41.182Z,18.45
2022-10-16T11:21:41.127Z,18.53
2022-10-16T11:22:41.137Z,18.62
2022-10-16T11:23:41.148Z,18.65
2022-10-16T11:24:41.070Z,18.73
2022-10-16T11:25:41.040Z,18.62
2022-10-16T11:26:41.036Z,18.56
2022-10-16T11:27:41.035Z,18.47
2022-10-16T11:28:41.105Z,18.40
2022-10-16T11:29:41.100Z,18.41
2022-10-16T11:30:41.000Z,18.41
2022-10-16T11:31:41.010Z,18.34
2022-10-16T11:32:40.978Z,18.43
2022-10-16T11:33:41.004Z,18.44
2022-10-16T11:34:40.943Z,18.37
2022-10-16T11:35:40.915Z,18.34
2022-10-16T11:36:40.972Z,18.31
2022-10-16T11:37:40.895Z,18.25
2022-10-16T11:38:43.940Z,18.29
2022-10-16T11:39:43.905Z,18.38
2022-10-16T11:40:40.854Z,18.41
2022-10-16T11:41:40.862Z,18.47
2022-10-16T11:42:40.828Z,18.53
2022-10-16T11:43:40.808Z,18.60
2022-10-16T11:44:40.829Z,18.70
2022-10-16T11:45:40.801Z,18.77
2022-10-16T11:46:58.261Z,18.84
2022-10-16T11:48:41.737Z,18.99
2022-10-16T11:49:40.798Z,19.08
2022-10-16T11:50:40.727Z,19.00
2022-10-16T11:51:40.719Z,18.96
2022-10-16T11:52:40.708Z,18.95
2022-10-16T11:53:48.170Z,18.89
2022-10-16T11:54:40.650Z,18.83
2022-10-16T11:55:43.341Z,18.66
2022-10-16T11:56:41.623Z,18.66
2022-10-16T11:57:40.613Z,18.70
2022-10-16T11:58:43.603Z,18.80
2022-10-16T11:59:43.594Z,18.86
2022-10-16T12:00:40.609Z,18.88
2022-10-16T12:01:40.618Z,18.92
2022-10-16T12:02:40.555Z,18.93
2022-10-16T12:03:40.550Z,18.81
2022-10-16T12:04:40.515Z,18.74
2022-10-16T12:05:40.506Z,18.65
2022-10-16T12:06:40.505Z,18.71
2022-10-16T12:07:40.496Z,18.80
2022-10-16T12:08:40.479Z,18.83
2022-10-16T12:09:40.460Z,18.80
2022-10-16T12:10:40.451Z,18.84
2022-10-16T12:11:40.428Z,18.78
2022-10-16T12:12:40.595Z,18.75
2022-10-16T12:13:40.396Z,18.66
2022-10-16T12:15:03.800Z,18.78
2022-10-16T12:15:58.068Z,18.92
2022-10-16T12:16:41.370Z,19.02
2022-10-16T12:17:40.371Z,19.07
2022-10-16T12:18:43.355Z,18.98
2022-10-16T12:19:43.400Z,18.92
2022-10-16T12:20:40.322Z,18.77
2022-10-16T12:21:40.294Z,18.60
2022-10-16T12:22:41.507Z,18.45
2022-10-16T12:23:40.275Z,18.31
2022-10-16T12:24:40.308Z,18.19
2022-10-16T12:25:40.242Z,18.18
2022-10-16T12:26:40.244Z,18.16
2022-10-16T12:27:40.235Z,18.19
2022-10-16T12:28:40.305Z,18.20
2022-10-16T12:29:40.187Z,18.28
2022-10-16T12:30:40.186Z,18.23
2022-10-16T12:31:42.731Z,18.18
2022-10-16T12:32:46.833Z,18.20
2022-10-16T12:33:41.169Z,18.19
2022-10-16T12:34:40.129Z,18.07
2022-10-16T12:35:40.110Z,17.97
2022-10-16T12:36:40.099Z,17.90
2022-10-16T12:37:40.119Z,17.85
2022-10-16T12:38:43.110Z,17.95
2022-10-16T12:39:43.081Z,18.04
2022-10-16T12:40:40.050Z,18.13
2022-10-16T12:41:40.031Z,18.26
2022-10-16T12:42:40.022Z,18.41
2022-10-16T12:43:40.032Z,18.56
2022-10-16T12:44:39.995Z,18.70
2022-10-16T12:45:39.983Z,18.81
2022-10-16T12:46:39.973Z,18.92
2022-10-16T12:47:39.952Z,18.95
2022-10-16T12:48:48.638Z,18.99
2022-10-16T12:49:40.953Z,19.07
2022-10-16T12:50:39.945Z,19.15
2022-10-16T12:51:39.913Z,19.19
2022-10-16T12:52:39.910Z,19.12
2022-10-16T12:53:39.895Z,19.11
2022-10-16T12:54:39.866Z,19.08
2022-10-16T12:55:39.859Z,18.99
2022-10-16T12:57:39.819Z,19.14
2022-10-16T12:58:42.837Z,19.21
2022-10-16T12:59:42.837Z,19.24
2022-10-16T13:00:39.868Z,19.26
2022-10-16T13:01:39.769Z,19.30
2022-10-16T13:02:39.759Z,19.33
2022-10-16T13:03:39.743Z,19.36
2022-10-16T13:04:39.750Z,19.37
2022-10-16T13:05:39.727Z,19.40
2022-10-16T13:06:39.705Z,19.44
2022-10-16T13:07:39.692Z,19.45
2022-10-16T13:08:39.682Z,19.45
2022-10-16T13:09:39.691Z,19.41
2022-10-16T13:10:39.662Z,19.37
2022-10-16T13:11:39.633Z,19.29
2022-10-16T13:12:39.630Z,19.26
2022-10-16T13:13:39.613Z,19.19
2022-10-16T13:14:39.657Z,19.16
2022-10-16T13:15:39.588Z,19.18
2022-10-16T13:16:39.595Z,19.19
2022-10-16T13:17:39.546Z,19.22
2022-10-16T13:18:42.546Z,19.18
2022-10-16T13:19:42.535Z,19.24
2022-10-16T13:20:39.507Z,19.19
2022-10-16T13:21:39.519Z,19.16
2022-10-16T13:22:39.488Z,19.18
2022-10-16T13:23:39.535Z,19.19
2022-10-16T13:24:39.448Z,19.18
2022-10-16T13:25:39.440Z,19.19
2022-10-16T13:26:39.454Z,19.16
2022-10-16T13:27:39.410Z,19.18
2022-10-16T13:28:39.462Z,19.22
2022-10-16T13:29:39.383Z,19.26
2022-10-16T13:30:39.384Z,19.24
2022-10-16T13:31:39.385Z,19.22
2022-10-16T13:32:39.345Z,19.09
2022-10-16T13:33:39.336Z,18.96
2022-10-16T13:34:39.312Z,18.89
2022-10-16T13:35:39.306Z,18.74
2022-10-16T13:36:39.314Z,18.59
2022-10-16T13:37:39.273Z,18.63
2022-10-16T13:38:42.294Z,18.70
2022-10-16T13:39:42.264Z,18.68
2022-10-16T13:40:39.238Z,18.60
2022-10-16T13:41:39.218Z,18.68
2022-10-16T13:42:39.208Z,18.63
2022-10-16T13:43:39.198Z,18.63
2022-10-16T13:44:39.206Z,18.68
2022-10-16T13:45:39.167Z,18.63
2022-10-16T13:46:39.154Z,18.56
2022-10-16T13:47:39.136Z,18.47
2022-10-16T13:48:39.137Z,18.38
2022-10-16T13:49:39.140Z,18.23
2022-10-16T13:50:39.102Z,18.11
2022-10-16T13:51:39.080Z,18.10
2022-10-16T13:52:39.070Z,18.10
2022-10-16T13:53:39.100Z,18.07
2022-10-16T13:54:39.042Z,18.08
2022-10-16T13:55:39.034Z,18.00
2022-10-16T13:56:39.012Z,18.00
2022-10-16T13:57:39.005Z,17.98
2022-10-16T13:58:42.013Z,18.01
2022-10-16T13:59:42.040Z,18.05
2022-10-16T14:01:38.975Z,18.13
2022-10-16T14:02:38.950Z,18.18
2022-10-16T14:03:38.927Z,18.25
2022-10-16T14:04:38.915Z,18.26
2022-10-16T14:05:38.935Z,18.31
2022-10-16T14:06:38.886Z,18.31
2022-10-16T14:07:38.868Z,18.33
2022-10-16T14:08:38.867Z,18.34
2022-10-16T14:09:38.877Z,18.35
2022-10-16T14:10:38.840Z,18.38
2022-10-16T14:11:38.847Z,18.38
2022-10-16T14:12:38.814Z,18.35
2022-10-16T14:13:38.809Z,18.33
2022-10-16T14:14:38.782Z,18.33
2022-10-16T14:15:38.813Z,18.34
2022-10-16T14:16:38.760Z,18.33
2022-10-16T14:17:38.744Z,18.35
2022-10-16T14:18:41.750Z,18.38
2022-10-16T14:19:41.729Z,18.40
2022-10-16T14:20:38.702Z,18.35
2022-10-16T14:21:38.730Z,18.38
2022-10-16T14:22:38.693Z,18.38
2022-10-16T14:23:38.663Z,18.33
2022-10-16T14:24:38.645Z,18.33
2022-10-16T14:25:38.643Z,18.31
2022-10-16T14:26:38.623Z,18.29
2022-10-16T14:27:38.633Z,18.28
2022-10-16T14:28:38.656Z,18.26
2022-10-16T14:29:38.587Z,18.25
2022-10-16T14:30:38.599Z,18.20
2022-10-16T14:31:38.556Z,18.16
2022-10-16T14:32:38.559Z,18.13
2022-10-16T14:33:38.566Z,18.15
2022-10-16T14:34:38.569Z,18.13
2022-10-16T14:35:38.500Z,18.08
2022-10-16T14:36:38.509Z,18.00
2022-10-16T14:37:38.478Z,17.98
2022-10-16T14:38:41.489Z,17.92
2022-10-16T14:39:41.524Z,17.90
2022-10-16T14:40:38.449Z,17.82
2022-10-16T14:41:38.421Z,17.74
2022-10-16T14:42:38.411Z,17.74
2022-10-16T14:43:38.421Z,17.76
2022-10-16T14:44:38.383Z,17.67
2022-10-16T14:45:38.396Z,17.68
2022-10-16T14:46:38.362Z,17.68
2022-10-16T14:47:38.384Z,17.70
2022-10-16T14:48:38.336Z,17.65
2022-10-16T14:49:38.333Z,17.64
2022-10-16T14:50:38.318Z,17.60
2022-10-16T14:51:38.296Z,17.59
2022-10-16T14:52:38.306Z,17.59
2022-10-16T14:53:38.281Z,17.54
2022-10-16T14:54:38.258Z,17.51
2022-10-16T14:55:38.248Z,17.48
2022-10-16T14:56:38.260Z,17.46
2022-10-16T14:57:38.215Z,17.44
2022-10-16T14:58:41.231Z,17.42
2022-10-16T14:59:41.288Z,17.42
2022-10-16T15:00:38.180Z,17.38
2022-10-16T15:01:38.172Z,17.34
2022-10-16T15:02:38.183Z,17.31
2022-10-16T15:03:38.190Z,17.33
2022-10-16T15:04:38.149Z,17.31
2022-10-16T15:05:38.102Z,17.31
2022-10-16T15:06:38.104Z,17.33
2022-10-16T15:07:38.081Z,17.30
2022-10-16T15:08:38.093Z,17.29
2022-10-16T15:09:38.082Z,17.30
2022-10-16T15:10:38.054Z,17.27
2022-10-16T15:11:38.024Z,17.27
2022-10-16T15:12:38.057Z,17.24
2022-10-16T15:13:38.005Z,17.20
2022-10-16T15:14:37.996Z,17.12
2022-10-16T15:15:37.975Z,17.06
2022-10-16T15:16:37.955Z,17.05
2022-10-16T15:17:37.975Z,17.02